Marine Blue — 3ECO4 — position and weather

sailwx.info

Track history (hours):
 
Tides and Currents Weather Stations Pressure Air Temp Water Temp Dewpoint Dewpoint Depression Visibility Wind Speed Wind Dir Waves Ship Positions

Marine Blue

Last reported at 2015-Mar-02 13:23 UTC. Time now 2015-Mar-07 00:09 UTC.
Position N 34°01' E 134°57'.

Length 125 m; draft 8.4 m.

Type: Cargo ship. MMSI: 371414000.

Date/timePositionNaut miles runAvg speedWind from/ knotsBaromVisibWave heightAir tempDewpointWater temp
2015-Mar-02 13:23N 34°01' E 134°57'1113.7
2015-Mar-02 12:33N 34°12' E 134°58'1312.4
2015-Mar-02 11:33N 34°24' E 135°04'1312.6
2015-Mar-02 10:33N 34°33' E 135°14'8 7.6
2015-Mar-02 09:33N 34°40' E 135°14'0 0.2
2015-Mar-02 08:33N 34°40' E 135°14'0 0.0
2015-Mar-02 07:33N 34°40' E 135°14'0 0.0
2015-Mar-02 06:21N 34°40' E 135°14'0 0.0
2015-Mar-02 05:33N 34°40' E 135°14'0 0.0
2015-Mar-02 04:27N 34°40' E 135°14'0 0.0
2015-Mar-02 03:33N 34°40' E 135°14'0 0.0
2015-Mar-02 02:33N 34°40' E 135°14'0 0.0
2015-Mar-02 01:27N 34°40' E 135°14'0 0.0
2015-Mar-02 00:33N 34°40' E 135°14'0 0.0
2015-Mar-01 23:33N 34°40' E 135°14'0 0.1
2015-Mar-01 22:33N 34°40' E 135°14'3 3.3
2015-Mar-01 21:33N 34°38' E 135°17'0 0.1
2015-Mar-01 20:30N 34°38' E 135°17'0 0.0
2015-Mar-01 19:24N 34°38' E 135°17'0 0.1
2015-Mar-01 18:24N 34°38' E 135°17'0 0.0
2015-Mar-01 17:24N 34°38' E 135°17'0 0.0
2015-Mar-01 16:30N 34°38' E 135°17'0 0.0
2015-Mar-01 15:06N 34°38' E 135°17'0 0.0
2015-Mar-01 14:24N 34°38' E 135°17'0 0.0
2015-Mar-01 13:30N 34°38' E 135°17'0 0.0
2015-Mar-01 12:24N 34°38' E 135°17'0 0.0
2015-Mar-01 11:30N 34°38' E 135°17'0 0.0
2015-Mar-01 10:30N 34°38' E 135°17'0 0.1
2015-Mar-01 09:30N 34°38' E 135°17'0 0.1
2015-Mar-01 08:30N 34°38' E 135°17'0 0.0
2015-Mar-01 07:30N 34°38' E 135°17'0 0.0
2015-Mar-01 06:24N 34°38' E 135°17'0 0.1
2015-Mar-01 05:30N 34°38' E 135°17'0 0.0
2015-Mar-01 04:30N 34°38' E 135°17'0 0.0
2015-Mar-01 03:24N 34°38' E 135°17'0 0.0
2015-Mar-01 02:30N 34°38' E 135°17'0 0.0
2015-Mar-01 01:30N 34°38' E 135°17'0 0.0
2015-Mar-01 00:30N 34°38' E 135°17'0 0.0
2015-Feb-28 23:30N 34°38' E 135°17'0 0.0
2015-Feb-28 22:30N 34°38' E 135°17'0 0.0
2015-Feb-28 21:30N 34°38' E 135°17'0 0.0
2015-Feb-28 20:30N 34°38' E 135°17'0 0.0
2015-Feb-28 19:30N 34°38' E 135°17'0 0.0
2015-Feb-28 18:30N 34°38' E 135°17'0 0.0
2015-Feb-28 17:30N 34°38' E 135°17'0 0.0
2015-Feb-28 16:30N 34°38' E 135°17'0 0.0
2015-Feb-28 15:30N 34°38' E 135°17'0 0.1
2015-Feb-28 14:30N 34°38' E 135°17'0 0.0
2015-Feb-28 13:30N 34°38' E 135°17'0 0.0
2015-Feb-28 12:30N 34°38' E 135°17'0 0.1
2015-Feb-28 11:11N 34°38' E 135°17'0 0.0
2015-Feb-28 10:23N 34°38' E 135°17'0 0.0
2015-Feb-28 09:29N 34°38' E 135°17'0 0.0
2015-Feb-28 08:23N 34°38' E 135°17'0 0.1
2015-Feb-28 07:29N 34°38' E 135°17'5 5.5
2015-Feb-28 06:34N 34°36' E 135°23'4 3.4
2015-Feb-28 05:30N 34°35' E 135°27'0 0.0
2015-Feb-28 02:18N 34°35' E 135°27'0 0.0
2015-Feb-28 01:30N 34°35' E 135°27'0 0.0
2015-Feb-28 00:18N 34°35' E 135°27'0 0.0
2015-Feb-27 23:18N 34°35' E 135°27'0 0.0
2015-Feb-27 22:24N 34°35' E 135°27'0 0.0
2015-Feb-27 21:30N 34°35' E 135°27'0 0.0
2015-Feb-27 20:24N 34°35' E 135°27'0 0.0
2015-Feb-27 19:30N 34°35' E 135°27'0 0.0
2015-Feb-27 18:30N 34°35' E 135°27'0 0.0
2015-Feb-27 17:30N 34°35' E 135°27'0 0.0
2015-Feb-27 16:30N 34°35' E 135°27'0 0.0
2015-Feb-27 15:30N 34°35' E 135°27'0 0.0
2015-Feb-27 14:30N 34°35' E 135°27'0 0.0
2015-Feb-27 13:30N 34°35' E 135°27'0 0.0
2015-Feb-27 12:30N 34°35' E 135°27'0 0.0
2015-Feb-27 11:30N 34°35' E 135°27'0 0.0
2015-Feb-27 10:30N 34°35' E 135°27'0 0.0
2015-Feb-27 09:30N 34°35' E 135°27'0 0.0
2015-Feb-27 08:30N 34°35' E 135°27'0 0.0
2015-Feb-27 07:30N 34°35' E 135°27'0 0.0
2015-Feb-27 06:18N 34°35' E 135°27'0 0.0
2015-Feb-27 05:18N 34°35' E 135°27'0 0.0
2015-Feb-27 03:30N 34°35' E 135°27'0 0.0
2015-Feb-27 01:24N 34°35' E 135°27'0 0.0
2015-Feb-27 00:18N 34°35' E 135°27'0 0.0
2015-Feb-26 23:30N 34°35' E 135°27'0 0.0
2015-Feb-26 22:30N 34°35' E 135°27'0 0.0
2015-Feb-26 13:29N 34°35' E 135°27'0 0.0
2015-Feb-26 11:29N 34°35' E 135°27'0 0.0
2015-Feb-26 07:11N 34°35' E 135°27'0 0.0
2015-Feb-26 06:17N 34°35' E 135°27'0 0.0
2015-Feb-26 05:23N 34°35' E 135°27'0 0.0
2015-Feb-26 04:17N 34°35' E 135°27'0 0.0
2015-Feb-26 01:32N 34°35' E 135°27'0 0.0
2015-Feb-26 00:26N 34°35' E 135°27'0 0.0
2015-Feb-25 22:20N 34°35' E 135°27'0 0.0
2015-Feb-25 21:14N 34°35' E 135°27'0 0.0
2015-Feb-25 20:26N 34°35' E 135°27'0 0.0
2015-Feb-25 19:14N 34°35' E 135°27'0 0.0
2015-Feb-25 18:26N 34°35' E 135°27'0 0.0
2015-Feb-25 17:26N 34°35' E 135°27'0 0.0
2015-Feb-25 16:26N 34°35' E 135°27'0 0.0
2015-Feb-25 15:20N 34°35' E 135°27'0 0.0
2015-Feb-25 14:32N 34°35' E 135°27'0 0.0
2015-Feb-25 12:14N 34°35' E 135°27'0 0.0
2015-Feb-25 10:26N 34°35' E 135°27'0 0.0
2015-Feb-25 09:32N 34°35' E 135°27'0 0.0
2015-Feb-25 08:26N 34°35' E 135°27'0 0.0
2015-Feb-25 07:31N 34°35' E 135°27'0 0.0
2015-Feb-25 06:31N 34°35' E 135°27'0 0.0
2015-Feb-25 05:25N 34°35' E 135°27'0 0.0
2015-Feb-25 04:31N 34°35' E 135°27'1 0.8
2015-Feb-25 03:31N 34°35' E 135°26'9 9.3
2015-Feb-25 02:33N 34°35' E 135°15'9 9.2
2015-Feb-25 01:33N 34°35' E 135°04'  
Track history (hours):
 
Tides and Currents Weather Stations Pressure Air Temp Water Temp Dewpoint Dewpoint Depression Visibility Wind Speed Wind Dir Waves Ship Positions

Marine Blue

Last reported at 2015-Mar-02 13:23 UTC. Time now 2015-Mar-07 00:09 UTC.
Position N 34°01' E 134°57'.

Length 125 m; draft 8.4 m.

Type: Cargo ship. MMSI: 371414000.

Date/timePositionNaut miles runAvg speedWind from/ knotsBaromVisibWave heightAir tempDewpointWater temp
2015-Mar-02 13:23N 34°01' E 134°57'1113.7
2015-Mar-02 12:33N 34°12' E 134°58'1312.4
2015-Mar-02 11:33N 34°24' E 135°04'1312.6
2015-Mar-02 10:33N 34°33' E 135°14'8 7.6
2015-Mar-02 09:33N 34°40' E 135°14'0 0.2
2015-Mar-02 08:33N 34°40' E 135°14'0 0.0
2015-Mar-02 07:33N 34°40' E 135°14'0 0.0
2015-Mar-02 06:21N 34°40' E 135°14'0 0.0
2015-Mar-02 05:33N 34°40' E 135°14'0 0.0
2015-Mar-02 04:27N 34°40' E 135°14'0 0.0
2015-Mar-02 03:33N 34°40' E 135°14'0 0.0
2015-Mar-02 02:33N 34°40' E 135°14'0 0.0
2015-Mar-02 01:27N 34°40' E 135°14'0 0.0
2015-Mar-02 00:33N 34°40' E 135°14'0 0.0
2015-Mar-01 23:33N 34°40' E 135°14'0 0.1
2015-Mar-01 22:33N 34°40' E 135°14'3 3.3
2015-Mar-01 21:33N 34°38' E 135°17'0 0.1
2015-Mar-01 20:30N 34°38' E 135°17'0 0.0
2015-Mar-01 19:24N 34°38' E 135°17'0 0.1
2015-Mar-01 18:24N 34°38' E 135°17'0 0.0
2015-Mar-01 17:24N 34°38' E 135°17'0 0.0
2015-Mar-01 16:30N 34°38' E 135°17'0 0.0
2015-Mar-01 15:06N 34°38' E 135°17'0 0.0
2015-Mar-01 14:24N 34°38' E 135°17'0 0.0
2015-Mar-01 13:30N 34°38' E 135°17'0 0.0
2015-Mar-01 12:24N 34°38' E 135°17'0 0.0
2015-Mar-01 11:30N 34°38' E 135°17'0 0.0
2015-Mar-01 10:30N 34°38' E 135°17'0 0.1
2015-Mar-01 09:30N 34°38' E 135°17'0 0.1
2015-Mar-01 08:30N 34°38' E 135°17'0 0.0
2015-Mar-01 07:30N 34°38' E 135°17'0 0.0
2015-Mar-01 06:24N 34°38' E 135°17'0 0.1
2015-Mar-01 05:30N 34°38' E 135°17'0 0.0
2015-Mar-01 04:30N 34°38' E 135°17'0 0.0
2015-Mar-01 03:24N 34°38' E 135°17'0 0.0
2015-Mar-01 02:30N 34°38' E 135°17'0 0.0
2015-Mar-01 01:30N 34°38' E 135°17'0 0.0
2015-Mar-01 00:30N 34°38' E 135°17'0 0.0
2015-Feb-28 23:30N 34°38' E 135°17'0 0.0
2015-Feb-28 22:30N 34°38' E 135°17'0 0.0
2015-Feb-28 21:30N 34°38' E 135°17'0 0.0
2015-Feb-28 20:30N 34°38' E 135°17'0 0.0
2015-Feb-28 19:30N 34°38' E 135°17'0 0.0
2015-Feb-28 18:30N 34°38' E 135°17'0 0.0
2015-Feb-28 17:30N 34°38' E 135°17'0 0.0
2015-Feb-28 16:30N 34°38' E 135°17'0 0.0
2015-Feb-28 15:30N 34°38' E 135°17'0 0.1
2015-Feb-28 14:30N 34°38' E 135°17'0 0.0
2015-Feb-28 13:30N 34°38' E 135°17'0 0.0
2015-Feb-28 12:30N 34°38' E 135°17'0 0.1
2015-Feb-28 11:11N 34°38' E 135°17'0 0.0
2015-Feb-28 10:23N 34°38' E 135°17'0 0.0
2015-Feb-28 09:29N 34°38' E 135°17'0 0.0
2015-Feb-28 08:23N 34°38' E 135°17'0 0.1
2015-Feb-28 07:29N 34°38' E 135°17'5 5.5
2015-Feb-28 06:34N 34°36' E 135°23'4 3.4
2015-Feb-28 05:30N 34°35' E 135°27'0 0.0
2015-Feb-28 02:18N 34°35' E 135°27'0 0.0
2015-Feb-28 01:30N 34°35' E 135°27'0 0.0
2015-Feb-28 00:18N 34°35' E 135°27'0 0.0
2015-Feb-27 23:18N 34°35' E 135°27'0 0.0
2015-Feb-27 22:24N 34°35' E 135°27'0 0.0
2015-Feb-27 21:30N 34°35' E 135°27'0 0.0
2015-Feb-27 20:24N 34°35' E 135°27'0 0.0
2015-Feb-27 19:30N 34°35' E 135°27'0 0.0
2015-Feb-27 18:30N 34°35' E 135°27'0 0.0
2015-Feb-27 17:30N 34°35' E 135°27'0 0.0
2015-Feb-27 16:30N 34°35' E 135°27'0 0.0
2015-Feb-27 15:30N 34°35' E 135°27'0 0.0
2015-Feb-27 14:30N 34°35' E 135°27'0 0.0
2015-Feb-27 13:30N 34°35' E 135°27'0 0.0
2015-Feb-27 12:30N 34°35' E 135°27'0 0.0
2015-Feb-27 11:30N 34°35' E 135°27'0 0.0
2015-Feb-27 10:30N 34°35' E 135°27'0 0.0
2015-Feb-27 09:30N 34°35' E 135°27'0 0.0
2015-Feb-27 08:30N 34°35' E 135°27'0 0.0
2015-Feb-27 07:30N 34°35' E 135°27'0 0.0
2015-Feb-27 06:18N 34°35' E 135°27'0 0.0
2015-Feb-27 05:18N 34°35' E 135°27'0 0.0
2015-Feb-27 03:30N 34°35' E 135°27'0 0.0
2015-Feb-27 01:24N 34°35' E 135°27'0 0.0
2015-Feb-27 00:18N 34°35' E 135°27'0 0.0
2015-Feb-26 23:30N 34°35' E 135°27'0 0.0
2015-Feb-26 22:30N 34°35' E 135°27'0 0.0
2015-Feb-26 13:29N 34°35' E 135°27'0 0.0
2015-Feb-26 11:29N 34°35' E 135°27'0 0.0
2015-Feb-26 07:11N 34°35' E 135°27'0 0.0
2015-Feb-26 06:17N 34°35' E 135°27'0 0.0
2015-Feb-26 05:23N 34°35' E 135°27'0 0.0
2015-Feb-26 04:17N 34°35' E 135°27'0 0.0
2015-Feb-26 01:32N 34°35' E 135°27'0 0.0
2015-Feb-26 00:26N 34°35' E 135°27'0 0.0
2015-Feb-25 22:20N 34°35' E 135°27'0 0.0
2015-Feb-25 21:14N 34°35' E 135°27'0 0.0
2015-Feb-25 20:26N 34°35' E 135°27'0 0.0
2015-Feb-25 19:14N 34°35' E 135°27'0 0.0
2015-Feb-25 18:26N 34°35' E 135°27'0 0.0
2015-Feb-25 17:26N 34°35' E 135°27'0 0.0
2015-Feb-25 16:26N 34°35' E 135°27'0 0.0
2015-Feb-25 15:20N 34°35' E 135°27'0 0.0
2015-Feb-25 14:32N 34°35' E 135°27'0 0.0
2015-Feb-25 12:14N 34°35' E 135°27'0 0.0
2015-Feb-25 10:26N 34°35' E 135°27'0 0.0
2015-Feb-25 09:32N 34°35' E 135°27'0 0.0
2015-Feb-25 08:26N 34°35' E 135°27'0 0.0
2015-Feb-25 07:31N 34°35' E 135°27'0 0.0
2015-Feb-25 06:31N 34°35' E 135°27'0 0.0
2015-Feb-25 05:25N 34°35' E 135°27'0 0.0
2015-Feb-25 04:31N 34°35' E 135°27'1 0.8
2015-Feb-25 03:31N 34°35' E 135°26'9 9.3
2015-Feb-25 02:33N 34°35' E 135°15'9 9.2
2015-Feb-25 01:33N 34°35' E 135°04'  

Dump ship's entire track history